sensor_id;sensor_type;location;lat;lon;timestamp;pressure;altitude;pressure_sealevel;temperature;humidity
62948;BME280;51940;52.126;-0.994;2023-05-02T00:01:39;101044.85;;;9.10;100.00
62948;BME280;51940;52.126;-0.994;2023-05-02T00:04:05;101046.48;;;9.05;100.00
62948;BME280;51940;52.126;-0.994;2023-05-02T00:06:30;101052.20;;;9.01;100.00
62948;BME280;51940;52.126;-0.994;2023-05-02T00:08:56;101055.77;;;9.00;100.00
62948;BME280;51940;52.126;-0.994;2023-05-02T00:11:22;101058.61;;;9.01;100.00
62948;BME280;51940;52.126;-0.994;2023-05-02T00:13:50;101060.20;;;9.02;100.00
62948;BME280;51940;52.126;-0.994;2023-05-02T00:16:15;101059.83;;;9.05;100.00
62948;BME280;51940;52.126;-0.994;2023-05-02T00:18:42;101057.69;;;9.05;100.00
62948;BME280;51940;52.126;-0.994;2023-05-02T00:21:07;101056.63;;;9.04;100.00
62948;BME280;51940;52.126;-0.994;2023-05-02T00:23:33;101054.13;;;9.04;100.00
62948;BME280;51940;52.126;-0.994;2023-05-02T00:25:59;101047.90;;;9.04;100.00
62948;BME280;51940;52.126;-0.994;2023-05-02T00:28:25;101043.09;;;9.06;100.00
62948;BME280;51940;52.126;-0.994;2023-05-02T00:30:53;101044.52;;;9.09;100.00
62948;BME280;51940;52.126;-0.994;2023-05-02T00:33:18;101044.34;;;9.08;100.00
62948;BME280;51940;52.126;-0.994;2023-05-02T00:35:44;101051.63;;;9.05;100.00
62948;BME280;51940;52.126;-0.994;2023-05-02T00:38:09;101053.59;;;9.06;100.00
62948;BME280;51940;52.126;-0.994;2023-05-02T00:40:42;101053.77;;;9.04;100.00
62948;BME280;51940;52.126;-0.994;2023-05-02T00:43:09;101058.08;;;9.01;100.00
62948;BME280;51940;52.126;-0.994;2023-05-02T00:45:37;101056.86;;;8.96;100.00
62948;BME280;51940;52.126;-0.994;2023-05-02T00:48:06;101061.87;;;8.93;100.00
62948;BME280;51940;52.126;-0.994;2023-05-02T00:50:35;101069.55;;;8.90;100.00
62948;BME280;51940;52.126;-0.994;2023-05-02T00:53:03;101074.52;;;8.87;100.00
62948;BME280;51940;52.126;-0.994;2023-05-02T00:55:30;101078.29;;;8.85;100.00
62948;BME280;51940;52.126;-0.994;2023-05-02T00:57:57;101073.69;;;8.81;100.00
62948;BME280;51940;52.126;-0.994;2023-05-02T01:00:34;101073.55;;;8.74;100.00
62948;BME280;51940;52.126;-0.994;2023-05-02T01:06:11;101078.23;;;8.65;100.00
62948;BME280;51940;52.126;-0.994;2023-05-02T01:11:31;101086.99;;;8.55;100.00
62948;BME280;51940;52.126;-0.994;2023-05-02T01:14:04;101090.72;;;8.52;100.00
62948;BME280;51940;52.126;-0.994;2023-05-02T01:16:31;101089.48;;;8.50;100.00
62948;BME280;51940;52.126;-0.994;2023-05-02T01:18:58;101094.66;;;8.48;100.00
62948;BME280;51940;52.126;-0.994;2023-05-02T01:21:25;101095.58;;;8.46;100.00
62948;BME280;51940;52.126;-0.994;2023-05-02T01:26:35;101098.77;;;8.46;100.00
62948;BME280;51940;52.126;-0.994;2023-05-02T01:29:07;101100.70;;;8.49;100.00
62948;BME280;51940;52.126;-0.994;2023-05-02T01:31:35;101104.42;;;8.51;100.00
62948;BME280;51940;52.126;-0.994;2023-05-02T01:34:05;101102.45;;;8.53;100.00
62948;BME280;51940;52.126;-0.994;2023-05-02T01:36:34;101105.47;;;8.54;100.00
62948;BME280;51940;52.126;-0.994;2023-05-02T01:39:03;101108.87;;;8.55;100.00
62948;BME280;51940;52.126;-0.994;2023-05-02T01:41:32;101112.42;;;8.55;100.00
62948;BME280;51940;52.126;-0.994;2023-05-02T01:44:01;101111.53;;;8.53;100.00
62948;BME280;51940;52.126;-0.994;2023-05-02T01:46:32;101111.01;;;8.50;100.00
62948;BME280;51940;52.126;-0.994;2023-05-02T01:49:02;101113.67;;;8.50;100.00
62948;BME280;51940;52.126;-0.994;2023-05-02T01:51:44;101121.33;;;8.48;100.00
62948;BME280;51940;52.126;-0.994;2023-05-02T01:54:12;101125.59;;;8.45;100.00
62948;BME280;51940;52.126;-0.994;2023-05-02T01:56:40;101127.91;;;8.45;100.00
62948;BME280;51940;52.126;-0.994;2023-05-02T01:59:11;101130.92;;;8.45;100.00
62948;BME280;51940;52.126;-0.994;2023-05-02T02:01:39;101134.14;;;8.46;100.00
62948;BME280;51940;52.126;-0.994;2023-05-02T02:04:08;101135.73;;;8.48;100.00
62948;BME280;51940;52.126;-0.994;2023-05-02T02:06:35;101133.59;;;8.48;100.00
62948;BME280;51940;52.126;-0.994;2023-05-02T02:09:01;101143.02;;;8.48;100.00
62948;BME280;51940;52.126;-0.994;2023-05-02T02:11:36;101144.63;;;8.46;100.00
62948;BME280;51940;52.126;-0.994;2023-05-02T02:14:06;101151.20;;;8.45;100.00
62948;BME280;51940;52.126;-0.994;2023-05-02T02:16:37;101155.11;;;8.44;100.00
62948;BME280;51940;52.126;-0.994;2023-05-02T02:19:07;101152.80;;;8.44;100.00
62948;BME280;51940;52.126;-0.994;2023-05-02T02:21:34;101157.42;;;8.45;100.00
62948;BME280;51940;52.126;-0.994;2023-05-02T02:24:04;101163.29;;;8.49;100.00
62948;BME280;51940;52.126;-0.994;2023-05-02T02:26:31;101171.64;;;8.46;100.00
62948;BME280;51940;52.126;-0.994;2023-05-02T02:28:57;101176.61;;;8.45;100.00
62948;BME280;51940;52.126;-0.994;2023-05-02T02:31:29;101181.25;;;8.41;100.00
62948;BME280;51940;52.126;-0.994;2023-05-02T02:33:57;101185.53;;;8.40;100.00
62948;BME280;51940;52.126;-0.994;2023-05-02T02:45:09;101183.23;;;8.40;100.00
62948;BME280;51940;52.126;-0.994;2023-05-02T02:47:47;101184.98;;;8.42;100.00
62948;BME280;51940;52.126;-0.994;2023-05-02T02:53:17;101185.33;;;8.48;100.00
62948;BME280;51940;52.126;-0.994;2023-05-02T03:01:02;101188.86;;;8.54;100.00
62948;BME280;51940;52.126;-0.994;2023-05-02T03:03:29;101186.02;;;8.57;100.00
62948;BME280;51940;52.126;-0.994;2023-05-02T03:05:58;101182.63;;;8.59;100.00
62948;BME280;51940;52.126;-0.994;2023-05-02T03:08:24;101181.20;;;8.60;100.00
62948;BME280;51940;52.126;-0.994;2023-05-02T03:10:49;101181.04;;;8.58;100.00
62948;BME280;51940;52.126;-0.994;2023-05-02T03:13:15;101179.45;;;8.57;100.00
62948;BME280;51940;52.126;-0.994;2023-05-02T03:15:59;101184.25;;;8.57;100.00
62948;BME280;51940;52.126;-0.994;2023-05-02T03:18:30;101181.41;;;8.55;100.00
62948;BME280;51940;52.126;-0.994;2023-05-02T03:20:57;101177.31;;;8.55;100.00
62948;BME280;51940;52.126;-0.994;2023-05-02T03:23:23;101179.61;;;8.53;100.00
62948;BME280;51940;52.126;-0.994;2023-05-02T03:25:49;101175.71;;;8.50;100.00
62948;BME280;51940;52.126;-0.994;2023-05-02T03:28:14;101175.91;;;8.49;100.00
62948;BME280;51940;52.126;-0.994;2023-05-02T03:30:40;101176.45;;;8.48;100.00
62948;BME280;51940;52.126;-0.994;2023-05-02T03:33:06;101178.40;;;8.48;100.00
62948;BME280;51940;52.126;-0.994;2023-05-02T03:35:33;101173.95;;;8.48;100.00
62948;BME280;51940;52.126;-0.994;2023-05-02T03:37:59;101172.52;;;8.49;100.00
62948;BME280;51940;52.126;-0.994;2023-05-02T03:40:26;101171.46;;;8.48;100.00
62948;BME280;51940;52.126;-0.994;2023-05-02T03:42:52;101175.38;;;8.48;100.00
62948;BME280;51940;52.126;-0.994;2023-05-02T03:45:17;101180.86;;;8.51;100.00
62948;BME280;51940;52.126;-0.994;2023-05-02T03:47:43;101186.02;;;8.52;100.00
62948;BME280;51940;52.126;-0.994;2023-05-02T03:50:08;101189.23;;;8.50;100.00
62948;BME280;51940;52.126;-0.994;2023-05-02T03:52:34;101184.24;;;8.52;100.00
62948;BME280;51940;52.126;-0.994;2023-05-02T03:55:00;101186.58;;;8.50;100.00
62948;BME280;51940;52.126;-0.994;2023-05-02T03:57:30;101184.08;;;8.47;100.00
62948;BME280;51940;52.126;-0.994;2023-05-02T03:59:56;101188.35;;;8.44;100.00
62948;BME280;51940;52.126;-0.994;2023-05-02T04:02:21;101193.52;;;8.41;100.00
62948;BME280;51940;52.126;-0.994;2023-05-02T04:04:47;101200.65;;;8.39;100.00
62948;BME280;51940;52.126;-0.994;2023-05-02T04:07:14;101207.39;;;8.37;100.00
62948;BME280;51940;52.126;-0.994;2023-05-02T04:09:44;101213.06;;;8.35;100.00
62948;BME280;51940;52.126;-0.994;2023-05-02T04:12:10;101220.70;;;8.33;100.00
62948;BME280;51940;52.126;-0.994;2023-05-02T04:14:35;101223.20;;;8.34;100.00
62948;BME280;51940;52.126;-0.994;2023-05-02T04:17:01;101230.12;;;8.34;100.00
62948;BME280;51940;52.126;-0.994;2023-05-02T04:19:26;101220.54;;;8.35;100.00
62948;BME280;51940;52.126;-0.994;2023-05-02T04:21:52;101221.61;;;8.36;100.00
62948;BME280;51940;52.126;-0.994;2023-05-02T04:24:18;101220.38;;;8.38;100.00
62948;BME280;51940;52.126;-0.994;2023-05-02T04:26:43;101219.31;;;8.38;100.00
62948;BME280;51940;52.126;-0.994;2023-05-02T04:29:11;101222.14;;;8.37;100.00
62948;BME280;51940;52.126;-0.994;2023-05-02T04:31:38;101224.11;;;8.39;100.00
62948;BME280;51940;52.126;-0.994;2023-05-02T04:34:04;101225.36;;;8.38;100.00
62948;BME280;51940;52.126;-0.994;2023-05-02T04:36:30;101223.75;;;8.39;100.00
62948;BME280;51940;52.126;-0.994;2023-05-02T04:38:58;101223.57;;;8.41;100.00
62948;BME280;51940;52.126;-0.994;2023-05-02T04:41:23;101222.14;;;8.42;100.00
62948;BME280;51940;52.126;-0.994;2023-05-02T04:43:49;101224.10;;;8.41;100.00
62948;BME280;51940;52.126;-0.994;2023-05-02T04:46:16;101222.85;;;8.41;100.00
62948;BME280;51940;52.126;-0.994;2023-05-02T04:48:42;101228.73;;;8.37;100.00
62948;BME280;51940;52.126;-0.994;2023-05-02T04:51:16;101232.99;;;8.38;100.00
62948;BME280;51940;52.126;-0.994;2023-05-02T04:53:41;101233.00;;;8.38;100.00
62948;BME280;51940;52.126;-0.994;2023-05-02T04:56:07;101233.70;;;8.39;100.00
62948;BME280;51940;52.126;-0.994;2023-05-02T04:58:35;101232.80;;;8.40;100.00
62948;BME280;51940;52.126;-0.994;2023-05-02T05:01:01;101237.95;;;8.41;100.00
62948;BME280;51940;52.126;-0.994;2023-05-02T05:03:28;101240.09;;;8.43;100.00
62948;BME280;51940;52.126;-0.994;2023-05-02T05:05:57;101244.71;;;8.43;100.00
62948;BME280;51940;52.126;-0.994;2023-05-02T05:08:24;101247.19;;;8.43;100.00
62948;BME280;51940;52.126;-0.994;2023-05-02T05:10:50;101249.14;;;8.44;100.00
62948;BME280;51940;52.126;-0.994;2023-05-02T05:13:16;101252.34;;;8.44;100.00
62948;BME280;51940;52.126;-0.994;2023-05-02T05:15:41;101250.05;;;8.43;100.00
62948;BME280;51940;52.126;-0.994;2023-05-02T05:18:08;101247.19;;;8.44;100.00
62948;BME280;51940;52.126;-0.994;2023-05-02T05:20:35;101253.41;;;8.45;100.00
62948;BME280;51940;52.126;-0.994;2023-05-02T05:23:00;101257.68;;;8.45;100.00
62948;BME280;51940;52.126;-0.994;2023-05-02T05:25:26;101258.58;;;8.46;100.00
62948;BME280;51940;52.126;-0.994;2023-05-02T05:27:52;101264.80;;;8.46;100.00
62948;BME280;51940;52.126;-0.994;2023-05-02T05:30:20;101264.27;;;8.46;100.00
62948;BME280;51940;52.126;-0.994;2023-05-02T05:32:46;101270.66;;;8.50;100.00
62948;BME280;51940;52.126;-0.994;2023-05-02T05:35:11;101272.08;;;8.54;100.00
62948;BME280;51940;52.126;-0.994;2023-05-02T05:37:37;101272.27;;;8.56;100.00
62948;BME280;51940;52.126;-0.994;2023-05-02T05:40:07;101275.27;;;8.59;100.00
62948;BME280;51940;52.126;-0.994;2023-05-02T05:42:33;101277.73;;;8.63;100.00
62948;BME280;51940;52.126;-0.994;2023-05-02T05:44:59;101277.21;;;8.66;100.00
62948;BME280;51940;52.126;-0.994;2023-05-02T05:47:24;101280.58;;;8.68;100.00
62948;BME280;51940;52.126;-0.994;2023-05-02T05:49:54;101285.73;;;8.70;100.00
62948;BME280;51940;52.126;-0.994;2023-05-02T05:52:20;101289.46;;;8.70;100.00
62948;BME280;51940;52.126;-0.994;2023-05-02T05:54:48;101294.09;;;8.75;100.00
62948;BME280;51940;52.126;-0.994;2023-05-02T05:57:45;101293.54;;;8.83;100.00
62948;BME280;51940;52.126;-0.994;2023-05-02T06:00:11;101293.33;;;8.95;100.00
62948;BME280;51940;52.126;-0.994;2023-05-02T06:02:40;101294.33;;;9.11;100.00
62948;BME280;51940;52.126;-0.994;2023-05-02T06:05:06;101292.29;;;9.33;100.00
62948;BME280;51940;52.126;-0.994;2023-05-02T06:07:31;101290.02;;;9.59;100.00
62948;BME280;51940;52.126;-0.994;2023-05-02T06:09:56;101292.00;;;9.86;100.00
62948;BME280;51940;52.126;-0.994;2023-05-02T06:12:22;101300.39;;;10.07;100.00
62948;BME280;51940;52.126;-0.994;2023-05-02T06:14:47;101307.13;;;10.12;100.00
62948;BME280;51940;52.126;-0.994;2023-05-02T06:17:12;101306.22;;;10.13;100.00
62948;BME280;51940;52.126;-0.994;2023-05-02T06:19:38;101309.23;;;10.18;100.00
62948;BME280;51940;52.126;-0.994;2023-05-02T06:22:04;101315.09;;;10.20;100.00
62948;BME280;51940;52.126;-0.994;2023-05-02T06:24:30;101324.36;;;10.21;100.00
62948;BME280;51940;52.126;-0.994;2023-05-02T06:26:55;101327.23;;;10.16;100.00
62948;BME280;51940;52.126;-0.994;2023-05-02T06:29:21;101330.14;;;10.11;100.00
62948;BME280;51940;52.126;-0.994;2023-05-02T06:31:47;101329.63;;;10.06;100.00
62948;BME280;51940;52.126;-0.994;2023-05-02T06:34:14;101332.70;;;10.01;100.00
62948;BME280;51940;52.126;-0.994;2023-05-02T06:36:40;101331.69;;;9.91;100.00
62948;BME280;51940;52.126;-0.994;2023-05-02T06:39:05;101335.86;;;9.80;100.00
62948;BME280;51940;52.126;-0.994;2023-05-02T06:41:33;101337.52;;;9.72;100.00
62948;BME280;51940;52.126;-0.994;2023-05-02T06:43:59;101337.37;;;9.63;100.00
62948;BME280;51940;52.126;-0.994;2023-05-02T06:46:32;101334.92;;;9.58;100.00
62948;BME280;51940;52.126;-0.994;2023-05-02T06:48:58;101340.96;;;9.58;100.00
62948;BME280;51940;52.126;-0.994;2023-05-02T06:51:24;101338.12;;;9.58;100.00
62948;BME280;51940;52.126;-0.994;2023-05-02T06:53:50;101343.77;;;9.64;100.00
62948;BME280;51940;52.126;-0.994;2023-05-02T06:56:17;101347.70;;;9.65;100.00
62948;BME280;51940;52.126;-0.994;2023-05-02T06:58:51;101346.05;;;9.71;100.00
62948;BME280;51940;52.126;-0.994;2023-05-02T07:01:17;101345.69;;;9.75;100.00
62948;BME280;51940;52.126;-0.994;2023-05-02T07:03:45;101345.69;;;9.73;100.00
62948;BME280;51940;52.126;-0.994;2023-05-02T07:06:10;101343.90;;;9.75;100.00
62948;BME280;51940;52.126;-0.994;2023-05-02T07:08:36;101347.42;;;9.80;100.00
62948;BME280;51940;52.126;-0.994;2023-05-02T07:11:01;101348.66;;;9.84;100.00
62948;BME280;51940;52.126;-0.994;2023-05-02T07:13:29;101351.47;;;9.90;100.00
62948;BME280;51940;52.126;-0.994;2023-05-02T07:15:55;101352.49;;;9.98;100.00
62948;BME280;51940;52.126;-0.994;2023-05-02T07:18:21;101356.02;;;10.04;100.00
62948;BME280;51940;52.126;-0.994;2023-05-02T07:20:47;101360.63;;;10.09;100.00
62948;BME280;51940;52.126;-0.994;2023-05-02T07:23:12;101364.33;;;10.16;100.00
62948;BME280;51940;52.126;-0.994;2023-05-02T07:25:38;101367.48;;;10.28;100.00
62948;BME280;51940;52.126;-0.994;2023-05-02T07:28:12;101372.75;;;10.38;100.00
62948;BME280;51940;52.126;-0.994;2023-05-02T07:30:38;101373.64;;;10.38;100.00
62948;BME280;51940;52.126;-0.994;2023-05-02T07:33:04;101378.08;;;10.41;100.00
62948;BME280;51940;52.126;-0.994;2023-05-02T07:35:30;101374.80;;;10.51;100.00
62948;BME280;51940;52.126;-0.994;2023-05-02T07:37:56;101377.35;;;10.66;100.00
62948;BME280;51940;52.126;-0.994;2023-05-02T07:40:21;101377.23;;;10.78;100.00
62948;BME280;51940;52.126;-0.994;2023-05-02T07:42:47;101373.91;;;10.91;100.00
62948;BME280;51940;52.126;-0.994;2023-05-02T07:45:15;101378.08;;;11.01;100.00
62948;BME280;51940;52.126;-0.994;2023-05-02T07:47:41;101376.55;;;11.12;100.00
62948;BME280;51940;52.126;-0.994;2023-05-02T07:50:07;101378.69;;;11.28;100.00
62948;BME280;51940;52.126;-0.994;2023-05-02T07:52:33;101380.33;;;11.42;100.00
62948;BME280;51940;52.126;-0.994;2023-05-02T07:54:58;101388.20;;;11.54;100.00
62948;BME280;51940;52.126;-0.994;2023-05-02T07:57:25;101388.14;;;11.75;100.00
62948;BME280;51940;52.126;-0.994;2023-05-02T07:59:55;101395.19;;;11.98;100.00
62948;BME280;51940;52.126;-0.994;2023-05-02T08:02:21;101403.71;;;12.14;100.00
62948;BME280;51940;52.126;-0.994;2023-05-02T08:04:48;101404.88;;;12.32;100.00
62948;BME280;51940;52.126;-0.994;2023-05-02T08:07:15;101408.27;;;12.45;100.00
62948;BME280;51940;52.126;-0.994;2023-05-02T08:09:42;101408.04;;;12.59;100.00
62948;BME280;51940;52.126;-0.994;2023-05-02T08:12:07;101413.17;;;12.74;100.00
62948;BME280;51940;52.126;-0.994;2023-05-02T08:14:33;101419.97;;;12.84;100.00
62948;BME280;51940;52.126;-0.994;2023-05-02T08:16:59;101418.50;;;12.97;100.00
62948;BME280;51940;52.126;-0.994;2023-05-02T08:19:25;101419.00;;;13.10;100.00
62948;BME280;51940;52.126;-0.994;2023-05-02T08:21:52;101417.47;;;13.14;100.00
62948;BME280;51940;52.126;-0.994;2023-05-02T08:24:19;101419.73;;;13.18;100.00
62948;BME280;51940;52.126;-0.994;2023-05-02T08:26:45;101428.48;;;13.21;100.00
62948;BME280;51940;52.126;-0.994;2023-05-02T08:29:10;101427.45;;;13.39;100.00
62948;BME280;51940;52.126;-0.994;2023-05-02T08:31:38;101433.85;;;13.59;100.00
62948;BME280;51940;52.126;-0.994;2023-05-02T08:34:04;101440.83;;;13.78;100.00
62948;BME280;51940;52.126;-0.994;2023-05-02T08:36:29;101439.26;;;13.93;100.00
62948;BME280;51940;52.126;-0.994;2023-05-02T08:38:56;101432.65;;;14.00;100.00
62948;BME280;51940;52.126;-0.994;2023-05-02T08:41:22;101440.33;;;14.10;100.00
62948;BME280;51940;52.126;-0.994;2023-05-02T08:43:52;101442.50;;;14.26;100.00
62948;BME280;51940;52.126;-0.994;2023-05-02T08:46:18;101445.63;;;14.38;100.00
62948;BME280;51940;52.126;-0.994;2023-05-02T08:48:50;101455.23;;;14.33;100.00
62948;BME280;51940;52.126;-0.994;2023-05-02T08:51:17;101461.11;;;14.27;100.00
62948;BME280;51940;52.126;-0.994;2023-05-02T08:53:43;101460.11;;;14.24;100.00
62948;BME280;51940;52.126;-0.994;2023-05-02T08:56:14;101464.04;;;14.17;100.00
62948;BME280;51940;52.126;-0.994;2023-05-02T08:58:45;101458.23;;;14.12;100.00
62948;BME280;51940;52.126;-0.994;2023-05-02T09:01:16;101457.55;;;14.09;100.00
62948;BME280;51940;52.126;-0.994;2023-05-02T09:03:43;101459.31;;;14.12;100.00
62948;BME280;51940;52.126;-0.994;2023-05-02T09:06:15;101463.88;;;14.16;100.00
62948;BME280;51940;52.126;-0.994;2023-05-02T09:08:42;101466.19;;;14.08;100.00
62948;BME280;51940;52.126;-0.994;2023-05-02T09:11:09;101459.86;;;14.03;100.00
62948;BME280;51940;52.126;-0.994;2023-05-02T09:13:41;101462.33;;;14.05;100.00
62948;BME280;51940;52.126;-0.994;2023-05-02T09:16:22;101456.48;;;14.08;100.00
62948;BME280;51940;52.126;-0.994;2023-05-02T09:18:49;101448.82;;;14.15;100.00
62948;BME280;51940;52.126;-0.994;2023-05-02T09:21:21;101448.84;;;14.23;100.00
62948;BME280;51940;52.126;-0.994;2023-05-02T09:23:49;101448.54;;;14.28;100.00
62948;BME280;51940;52.126;-0.994;2023-05-02T09:31:15;101458.11;;;14.50;100.00
62948;BME280;51940;52.126;-0.994;2023-05-02T09:33:41;101453.70;;;14.47;100.00
62948;BME280;51940;52.126;-0.994;2023-05-02T09:36:09;101453.49;;;14.56;100.00
62948;BME280;51940;52.126;-0.994;2023-05-02T09:38:37;101456.35;;;14.72;100.00
62948;BME280;51940;52.126;-0.994;2023-05-02T09:41:03;101463.02;;;14.86;100.00
62948;BME280;51940;52.126;-0.994;2023-05-02T09:43:30;101469.13;;;14.85;100.00
62948;BME280;51940;52.126;-0.994;2023-05-02T09:46:03;101471.45;;;14.93;100.00
62948;BME280;51940;52.126;-0.994;2023-05-02T09:48:31;101471.30;;;15.06;100.00
62948;BME280;51940;52.126;-0.994;2023-05-02T09:50:57;101473.07;;;15.21;100.00
62948;BME280;51940;52.126;-0.994;2023-05-02T09:53:25;101476.43;;;15.30;100.00
62948;BME280;51940;52.126;-0.994;2023-05-02T09:56:04;101482.98;;;15.34;100.00
62948;BME280;51940;52.126;-0.994;2023-05-02T09:58:30;101491.45;;;15.33;100.00
62948;BME280;51940;52.126;-0.994;2023-05-02T10:00:56;101490.84;;;15.36;100.00
62948;BME280;51940;52.126;-0.994;2023-05-02T10:03:25;101486.73;;;15.48;100.00
62948;BME280;51940;52.126;-0.994;2023-05-02T10:05:52;101485.05;;;15.65;100.00
62948;BME280;51940;52.126;-0.994;2023-05-02T10:08:25;101493.34;;;15.70;100.00
62948;BME280;51940;52.126;-0.994;2023-05-02T10:10:55;101487.34;;;15.86;100.00
62948;BME280;51940;52.126;-0.994;2023-05-02T10:13:23;101493.98;;;16.05;100.00
62948;BME280;51940;52.126;-0.994;2023-05-02T10:16:19;101499.11;;;16.08;100.00
62948;BME280;51940;52.126;-0.994;2023-05-02T10:18:59;101511.95;;;16.06;100.00
62948;BME280;51940;52.126;-0.994;2023-05-02T10:21:27;101511.27;;;16.12;100.00
62948;BME280;51940;52.126;-0.994;2023-05-02T10:23:53;101510.39;;;16.22;100.00
62948;BME280;51940;52.126;-0.994;2023-05-02T10:26:19;101511.05;;;16.30;100.00
62948;BME280;51940;52.126;-0.994;2023-05-02T10:28:46;101511.08;;;16.29;100.00
62948;BME280;51940;52.126;-0.994;2023-05-02T10:31:13;101512.56;;;16.34;100.00
62948;BME280;51940;52.126;-0.994;2023-05-02T10:33:40;101513.67;;;16.39;100.00
62948;BME280;51940;52.126;-0.994;2023-05-02T10:36:08;101513.14;;;16.45;100.00
62948;BME280;51940;52.126;-0.994;2023-05-02T10:38:35;101513.36;;;16.56;100.00
62948;BME280;51940;52.126;-0.994;2023-05-02T10:41:13;101520.29;;;16.59;100.00
62948;BME280;51940;52.126;-0.994;2023-05-02T10:43:45;101527.05;;;16.61;100.00
62948;BME280;51940;52.126;-0.994;2023-05-02T10:49:00;101529.90;;;16.69;100.00
62948;BME280;51940;52.126;-0.994;2023-05-02T10:51:27;101530.06;;;16.75;100.00
62948;BME280;51940;52.126;-0.994;2023-05-02T10:59:34;101537.36;;;17.06;100.00
62948;BME280;51940;52.126;-0.994;2023-05-02T11:02:01;101540.98;;;17.16;100.00
62948;BME280;51940;52.126;-0.994;2023-05-02T11:05:04;101545.04;;;17.30;100.00
62948;BME280;51940;52.126;-0.994;2023-05-02T11:07:31;101554.15;;;17.32;100.00
62948;BME280;51940;52.126;-0.994;2023-05-02T11:15:13;101555.90;;;17.18;100.00
62948;BME280;51940;52.126;-0.994;2023-05-02T11:18:01;101551.66;;;17.04;100.00
62948;BME280;51940;52.126;-0.994;2023-05-02T11:20:29;101549.80;;;16.89;100.00
62948;BME280;51940;52.126;-0.994;2023-05-02T11:22:57;101554.30;;;16.89;100.00
62948;BME280;51940;52.126;-0.994;2023-05-02T11:25:34;101561.08;;;16.91;100.00
62948;BME280;51940;52.126;-0.994;2023-05-02T11:28:00;101563.55;;;16.88;100.00
62948;BME280;51940;52.126;-0.994;2023-05-02T11:30:40;101561.95;;;16.75;100.00
62948;BME280;51940;52.126;-0.994;2023-05-02T11:35:34;101561.70;;;16.58;100.00
62948;BME280;51940;52.126;-0.994;2023-05-02T11:38:08;101566.34;;;16.43;100.00
62948;BME280;51940;52.126;-0.994;2023-05-02T11:40:35;101572.73;;;16.20;100.00
62948;BME280;51940;52.126;-0.994;2023-05-02T11:43:11;101574.95;;;15.99;100.00
62948;BME280;51940;52.126;-0.994;2023-05-02T11:45:37;101575.08;;;15.81;100.00
62948;BME280;51940;52.126;-0.994;2023-05-02T11:48:11;101574.35;;;15.68;100.00
62948;BME280;51940;52.126;-0.994;2023-05-02T11:50:45;101573.77;;;15.64;100.00
62948;BME280;51940;52.126;-0.994;2023-05-02T11:53:15;101575.08;;;15.60;100.00
62948;BME280;51940;52.126;-0.994;2023-05-02T11:55:53;101576.37;;;15.59;100.00
62948;BME280;51940;52.126;-0.994;2023-05-02T11:58:24;101580.12;;;15.52;100.00
62948;BME280;51940;52.126;-0.994;2023-05-02T12:00:52;101576.67;;;15.47;100.00
62948;BME280;51940;52.126;-0.994;2023-05-02T12:03:31;101573.58;;;15.41;100.00
62948;BME280;51940;52.126;-0.994;2023-05-02T12:06:14;101583.84;;;15.34;100.00
62948;BME280;51940;52.126;-0.994;2023-05-02T12:08:44;101587.02;;;15.21;100.00
62948;BME280;51940;52.126;-0.994;2023-05-02T12:11:16;101580.76;;;15.12;100.00
62948;BME280;51940;52.126;-0.994;2023-05-02T12:13:46;101576.14;;;15.10;100.00
62948;BME280;51940;52.126;-0.994;2023-05-02T12:16:13;101584.30;;;15.07;100.00
62948;BME280;51940;52.126;-0.994;2023-05-02T12:18:39;101584.24;;;15.02;100.00
62948;BME280;51940;52.126;-0.994;2023-05-02T12:21:05;101580.52;;;14.93;100.00
62948;BME280;51940;52.126;-0.994;2023-05-02T12:23:32;101579.19;;;14.80;100.00
62948;BME280;51940;52.126;-0.994;2023-05-02T12:25:57;101573.61;;;14.72;100.00
62948;BME280;51940;52.126;-0.994;2023-05-02T12:28:24;101568.40;;;14.87;100.00
62948;BME280;51940;52.126;-0.994;2023-05-02T12:30:50;101563.36;;;15.11;100.00
62948;BME280;51940;52.126;-0.994;2023-05-02T12:33:17;101564.23;;;15.35;100.00
62948;BME280;51940;52.126;-0.994;2023-05-02T12:35:43;101566.85;;;15.51;100.00
62948;BME280;51940;52.126;-0.994;2023-05-02T12:38:13;101568.34;;;15.64;100.00
62948;BME280;51940;52.126;-0.994;2023-05-02T12:40:46;101563.55;;;15.75;100.00
62948;BME280;51940;52.126;-0.994;2023-05-02T12:43:12;101561.71;;;15.84;100.00
62948;BME280;51940;52.126;-0.994;2023-05-02T12:45:38;101558.96;;;15.92;100.00
62948;BME280;51940;52.126;-0.994;2023-05-02T12:48:25;101560.33;;;16.14;100.00
62948;BME280;51940;52.126;-0.994;2023-05-02T12:50:52;101564.02;;;16.29;100.00
62948;BME280;51940;52.126;-0.994;2023-05-02T12:53:38;101564.21;;;16.41;100.00
62948;BME280;51940;52.126;-0.994;2023-05-02T12:56:05;101560.96;;;16.59;100.00
62948;BME280;51940;52.126;-0.994;2023-05-02T12:58:40;101562.56;;;16.79;100.00
62948;BME280;51940;52.126;-0.994;2023-05-02T13:01:06;101565.99;;;16.90;100.00
62948;BME280;51940;52.126;-0.994;2023-05-02T13:03:32;101569.27;;;17.01;100.00
62948;BME280;51940;52.126;-0.994;2023-05-02T13:05:57;101579.88;;;16.95;100.00
62948;BME280;51940;52.126;-0.994;2023-05-02T13:08:23;101580.62;;;16.78;100.00
62948;BME280;51940;52.126;-0.994;2023-05-02T13:10:49;101583.45;;;16.73;100.00
62948;BME280;51940;52.126;-0.994;2023-05-02T13:13:14;101583.94;;;16.69;100.00
62948;BME280;51940;52.126;-0.994;2023-05-02T13:15:40;101580.24;;;16.65;100.00
62948;BME280;51940;52.126;-0.994;2023-05-02T13:18:06;101576.58;;;16.68;100.00
62948;BME280;51940;52.126;-0.994;2023-05-02T13:20:32;101574.37;;;16.76;100.00
62948;BME280;51940;52.126;-0.994;2023-05-02T13:22:57;101574.32;;;16.83;100.00
62948;BME280;51940;52.126;-0.994;2023-05-02T13:25:23;101578.02;;;16.86;100.00
62948;BME280;51940;52.126;-0.994;2023-05-02T13:27:50;101574.46;;;16.84;100.00